sensor_id;sensor_type;location;lat;lon;timestamp;P1;durP1;ratioP1;P2;durP2;ratioP2
75216;SDS011;63800;51.972;5.682;2023-04-24T00:01:37;8.10;;;4.70;;
75216;SDS011;63800;51.972;5.682;2023-04-24T00:04:04;6.05;;;4.50;;
75216;SDS011;63800;51.972;5.682;2023-04-24T00:06:31;6.18;;;4.25;;
75216;SDS011;63800;51.972;5.682;2023-04-24T00:08:59;5.68;;;3.97;;
75216;SDS011;63800;51.972;5.682;2023-04-24T00:11:26;4.45;;;3.60;;
75216;SDS011;63800;51.972;5.682;2023-04-24T00:13:52;8.25;;;3.85;;
75216;SDS011;63800;51.972;5.682;2023-04-24T00:16:17;4.93;;;3.72;;
75216;SDS011;63800;51.972;5.682;2023-04-24T00:18:43;6.05;;;3.88;;
75216;SDS011;63800;51.972;5.682;2023-04-24T00:21:09;4.22;;;3.38;;
75216;SDS011;63800;51.972;5.682;2023-04-24T00:23:35;5.30;;;3.50;;
75216;SDS011;63800;51.972;5.682;2023-04-24T00:26:01;4.72;;;3.10;;
75216;SDS011;63800;51.972;5.682;2023-04-24T00:28:27;4.28;;;3.10;;
75216;SDS011;63800;51.972;5.682;2023-04-24T00:30:52;4.07;;;3.17;;
75216;SDS011;63800;51.972;5.682;2023-04-24T00:33:18;3.70;;;3.05;;
75216;SDS011;63800;51.972;5.682;2023-04-24T00:35:44;4.13;;;2.85;;
75216;SDS011;63800;51.972;5.682;2023-04-24T00:38:09;2.97;;;2.45;;
75216;SDS011;63800;51.972;5.682;2023-04-24T00:40:35;3.60;;;3.00;;
75216;SDS011;63800;51.972;5.682;2023-04-24T00:43:00;5.13;;;3.42;;
75216;SDS011;63800;51.972;5.682;2023-04-24T00:45:26;5.18;;;3.92;;
75216;SDS011;63800;51.972;5.682;2023-04-24T00:47:52;7.90;;;4.25;;
75216;SDS011;63800;51.972;5.682;2023-04-24T00:50:17;7.82;;;5.43;;
75216;SDS011;63800;51.972;5.682;2023-04-24T00:52:44;8.52;;;5.90;;
75216;SDS011;63800;51.972;5.682;2023-04-24T00:55:09;9.63;;;5.70;;
75216;SDS011;63800;51.972;5.682;2023-04-24T00:57:35;10.07;;;6.25;;
75216;SDS011;63800;51.972;5.682;2023-04-24T01:00:01;9.98;;;6.25;;
75216;SDS011;63800;51.972;5.682;2023-04-24T01:02:28;9.63;;;5.85;;
75216;SDS011;63800;51.972;5.682;2023-04-24T01:04:54;11.15;;;6.57;;
75216;SDS011;63800;51.972;5.682;2023-04-24T01:07:20;11.85;;;6.50;;
75216;SDS011;63800;51.972;5.682;2023-04-24T01:09:46;5.78;;;3.45;;
75216;SDS011;63800;51.972;5.682;2023-04-24T01:12:14;3.13;;;2.20;;
75216;SDS011;63800;51.972;5.682;2023-04-24T01:14:40;2.72;;;2.15;;
75216;SDS011;63800;51.972;5.682;2023-04-24T01:17:05;4.80;;;3.13;;
75216;SDS011;63800;51.972;5.682;2023-04-24T01:19:32;4.13;;;2.90;;
75216;SDS011;63800;51.972;5.682;2023-04-24T01:21:58;4.60;;;3.25;;
75216;SDS011;63800;51.972;5.682;2023-04-24T01:24:24;4.18;;;3.03;;
75216;SDS011;63800;51.972;5.682;2023-04-24T01:26:49;3.17;;;2.40;;
75216;SDS011;63800;51.972;5.682;2023-04-24T01:29:15;3.42;;;2.55;;
75216;SDS011;63800;51.972;5.682;2023-04-24T01:31:40;4.35;;;2.53;;
75216;SDS011;63800;51.972;5.682;2023-04-24T01:34:06;4.25;;;2.85;;
75216;SDS011;63800;51.972;5.682;2023-04-24T01:36:33;3.83;;;2.60;;
75216;SDS011;63800;51.972;5.682;2023-04-24T01:39:00;4.20;;;3.08;;
75216;SDS011;63800;51.972;5.682;2023-04-24T01:41:25;4.40;;;2.45;;
75216;SDS011;63800;51.972;5.682;2023-04-24T01:43:51;3.95;;;2.67;;
75216;SDS011;63800;51.972;5.682;2023-04-24T01:46:17;4.28;;;2.78;;
75216;SDS011;63800;51.972;5.682;2023-04-24T01:48:44;4.88;;;3.10;;
75216;SDS011;63800;51.972;5.682;2023-04-24T01:51:10;4.60;;;3.05;;
75216;SDS011;63800;51.972;5.682;2023-04-24T01:53:35;5.35;;;3.20;;
75216;SDS011;63800;51.972;5.682;2023-04-24T01:56:01;5.95;;;3.42;;
75216;SDS011;63800;51.972;5.682;2023-04-24T01:58:27;4.82;;;4.07;;
75216;SDS011;63800;51.972;5.682;2023-04-24T02:00:52;5.30;;;3.47;;
75216;SDS011;63800;51.972;5.682;2023-04-24T02:03:17;6.63;;;4.30;;
75216;SDS011;63800;51.972;5.682;2023-04-24T02:05:43;7.00;;;4.47;;
75216;SDS011;63800;51.972;5.682;2023-04-24T02:08:10;8.57;;;5.03;;
75216;SDS011;63800;51.972;5.682;2023-04-24T02:10:35;10.40;;;5.32;;
75216;SDS011;63800;51.972;5.682;2023-04-24T02:13:01;9.70;;;5.40;;
75216;SDS011;63800;51.972;5.682;2023-04-24T02:15:27;10.68;;;5.32;;
75216;SDS011;63800;51.972;5.682;2023-04-24T02:17:52;9.48;;;5.90;;
75216;SDS011;63800;51.972;5.682;2023-04-24T02:20:18;11.38;;;6.82;;
75216;SDS011;63800;51.972;5.682;2023-04-24T02:22:43;12.07;;;6.70;;
75216;SDS011;63800;51.972;5.682;2023-04-24T02:25:09;12.45;;;7.10;;
75216;SDS011;63800;51.972;5.682;2023-04-24T02:27:34;13.30;;;7.85;;
75216;SDS011;63800;51.972;5.682;2023-04-24T02:30:00;16.52;;;9.30;;
75216;SDS011;63800;51.972;5.682;2023-04-24T02:32:25;16.20;;;8.57;;
75216;SDS011;63800;51.972;5.682;2023-04-24T02:34:51;16.80;;;9.00;;
75216;SDS011;63800;51.972;5.682;2023-04-24T02:37:16;19.95;;;10.90;;
75216;SDS011;63800;51.972;5.682;2023-04-24T02:39:41;20.02;;;10.15;;
75216;SDS011;63800;51.972;5.682;2023-04-24T02:42:07;20.90;;;11.13;;
75216;SDS011;63800;51.972;5.682;2023-04-24T02:44:33;22.50;;;11.48;;
75216;SDS011;63800;51.972;5.682;2023-04-24T02:46:58;20.52;;;10.98;;
75216;SDS011;63800;51.972;5.682;2023-04-24T02:49:24;17.60;;;9.27;;
75216;SDS011;63800;51.972;5.682;2023-04-24T02:51:49;20.27;;;11.05;;
75216;SDS011;63800;51.972;5.682;2023-04-24T02:54:14;15.27;;;8.50;;
75216;SDS011;63800;51.972;5.682;2023-04-24T02:56:40;12.80;;;7.20;;
75216;SDS011;63800;51.972;5.682;2023-04-24T02:59:05;12.45;;;6.80;;
75216;SDS011;63800;51.972;5.682;2023-04-24T03:01:31;9.63;;;5.55;;
75216;SDS011;63800;51.972;5.682;2023-04-24T03:03:56;8.82;;;5.43;;
75216;SDS011;63800;51.972;5.682;2023-04-24T03:06:22;8.50;;;6.22;;
75216;SDS011;63800;51.972;5.682;2023-04-24T03:08:47;9.07;;;5.35;;
75216;SDS011;63800;51.972;5.682;2023-04-24T03:11:13;10.57;;;6.15;;
75216;SDS011;63800;51.972;5.682;2023-04-24T03:13:38;16.08;;;7.30;;
75216;SDS011;63800;51.972;5.682;2023-04-24T03:16:04;18.05;;;9.40;;
75216;SDS011;63800;51.972;5.682;2023-04-24T03:18:30;19.42;;;9.45;;
75216;SDS011;63800;51.972;5.682;2023-04-24T03:20:56;18.13;;;9.75;;
75216;SDS011;63800;51.972;5.682;2023-04-24T03:23:21;20.45;;;11.32;;
75216;SDS011;63800;51.972;5.682;2023-04-24T03:25:47;22.75;;;12.43;;
75216;SDS011;63800;51.972;5.682;2023-04-24T03:28:13;21.70;;;12.35;;
75216;SDS011;63800;51.972;5.682;2023-04-24T03:30:38;22.70;;;12.63;;
75216;SDS011;63800;51.972;5.682;2023-04-24T03:33:04;23.95;;;12.48;;
75216;SDS011;63800;51.972;5.682;2023-04-24T03:35:30;22.25;;;12.98;;
75216;SDS011;63800;51.972;5.682;2023-04-24T03:37:56;26.92;;;14.40;;
75216;SDS011;63800;51.972;5.682;2023-04-24T03:40:21;27.98;;;15.10;;
75216;SDS011;63800;51.972;5.682;2023-04-24T03:42:46;29.80;;;16.00;;
75216;SDS011;63800;51.972;5.682;2023-04-24T03:45:12;30.98;;;15.77;;
75216;SDS011;63800;51.972;5.682;2023-04-24T03:47:37;30.15;;;17.05;;
75216;SDS011;63800;51.972;5.682;2023-04-24T03:50:03;34.97;;;18.70;;
75216;SDS011;63800;51.972;5.682;2023-04-24T03:52:28;37.28;;;18.77;;
75216;SDS011;63800;51.972;5.682;2023-04-24T03:54:54;36.00;;;20.55;;
75216;SDS011;63800;51.972;5.682;2023-04-24T03:57:20;44.17;;;19.75;;
75216;SDS011;63800;51.972;5.682;2023-04-24T03:59:45;38.25;;;20.45;;
75216;SDS011;63800;51.972;5.682;2023-04-24T04:02:11;39.65;;;20.80;;
75216;SDS011;63800;51.972;5.682;2023-04-24T04:04:36;41.78;;;21.95;;
75216;SDS011;63800;51.972;5.682;2023-04-24T04:07:02;40.22;;;21.23;;
75216;SDS011;63800;51.972;5.682;2023-04-24T04:09:28;46.20;;;22.65;;
75216;SDS011;63800;51.972;5.682;2023-04-24T04:11:53;44.38;;;21.95;;
75216;SDS011;63800;51.972;5.682;2023-04-24T04:14:19;39.67;;;21.10;;
75216;SDS011;63800;51.972;5.682;2023-04-24T04:16:44;41.70;;;20.35;;
75216;SDS011;63800;51.972;5.682;2023-04-24T04:19:10;40.15;;;20.45;;
75216;SDS011;63800;51.972;5.682;2023-04-24T04:21:35;43.33;;;22.92;;
75216;SDS011;63800;51.972;5.682;2023-04-24T04:24:01;41.20;;;21.02;;
75216;SDS011;63800;51.972;5.682;2023-04-24T04:26:26;41.92;;;21.23;;
75216;SDS011;63800;51.972;5.682;2023-04-24T04:28:52;37.70;;;19.33;;
75216;SDS011;63800;51.972;5.682;2023-04-24T04:31:19;39.42;;;21.05;;
75216;SDS011;63800;51.972;5.682;2023-04-24T04:33:45;41.55;;;20.85;;
75216;SDS011;63800;51.972;5.682;2023-04-24T04:36:10;39.85;;;19.67;;
75216;SDS011;63800;51.972;5.682;2023-04-24T04:38:37;43.10;;;21.10;;
75216;SDS011;63800;51.972;5.682;2023-04-24T04:41:02;40.08;;;21.08;;
75216;SDS011;63800;51.972;5.682;2023-04-24T04:43:28;39.35;;;20.75;;
75216;SDS011;63800;51.972;5.682;2023-04-24T04:45:54;39.30;;;19.77;;
75216;SDS011;63800;51.972;5.682;2023-04-24T04:48:20;41.15;;;18.90;;
75216;SDS011;63800;51.972;5.682;2023-04-24T04:50:47;43.53;;;20.15;;
75216;SDS011;63800;51.972;5.682;2023-04-24T04:53:12;38.38;;;19.88;;
75216;SDS011;63800;51.972;5.682;2023-04-24T04:55:38;35.97;;;18.33;;
75216;SDS011;63800;51.972;5.682;2023-04-24T04:58:03;35.17;;;17.50;;
75216;SDS011;63800;51.972;5.682;2023-04-24T05:00:29;29.75;;;15.43;;
75216;SDS011;63800;51.972;5.682;2023-04-24T05:03:01;24.67;;;13.25;;
75216;SDS011;63800;51.972;5.682;2023-04-24T05:05:27;25.42;;;13.30;;
75216;SDS011;63800;51.972;5.682;2023-04-24T05:07:53;22.23;;;11.27;;
75216;SDS011;63800;51.972;5.682;2023-04-24T05:10:18;17.88;;;10.15;;
75216;SDS011;63800;51.972;5.682;2023-04-24T05:12:44;18.80;;;9.40;;
75216;SDS011;63800;51.972;5.682;2023-04-24T05:15:09;17.33;;;9.30;;
75216;SDS011;63800;51.972;5.682;2023-04-24T05:17:35;15.13;;;8.20;;
75216;SDS011;63800;51.972;5.682;2023-04-24T05:20:01;11.02;;;6.82;;
75216;SDS011;63800;51.972;5.682;2023-04-24T05:22:30;11.85;;;7.28;;
75216;SDS011;63800;51.972;5.682;2023-04-24T05:24:56;10.88;;;6.85;;
75216;SDS011;63800;51.972;5.682;2023-04-24T05:27:21;11.38;;;7.07;;
75216;SDS011;63800;51.972;5.682;2023-04-24T05:29:46;10.25;;;5.75;;
75216;SDS011;63800;51.972;5.682;2023-04-24T05:32:12;11.15;;;5.95;;
75216;SDS011;63800;51.972;5.682;2023-04-24T05:34:37;10.13;;;5.50;;
75216;SDS011;63800;51.972;5.682;2023-04-24T05:37:03;11.07;;;5.95;;
75216;SDS011;63800;51.972;5.682;2023-04-24T05:39:33;10.45;;;6.93;;
75216;SDS011;63800;51.972;5.682;2023-04-24T05:41:58;12.48;;;7.40;;
75216;SDS011;63800;51.972;5.682;2023-04-24T05:44:24;12.23;;;6.88;;
75216;SDS011;63800;51.972;5.682;2023-04-24T05:46:50;11.65;;;7.45;;
75216;SDS011;63800;51.972;5.682;2023-04-24T05:49:16;12.55;;;7.30;;
75216;SDS011;63800;51.972;5.682;2023-04-24T05:51:41;11.98;;;7.22;;
75216;SDS011;63800;51.972;5.682;2023-04-24T05:54:06;14.23;;;7.18;;
75216;SDS011;63800;51.972;5.682;2023-04-24T05:56:32;11.15;;;6.90;;
75216;SDS011;63800;51.972;5.682;2023-04-24T05:58:57;13.70;;;7.55;;
75216;SDS011;63800;51.972;5.682;2023-04-24T06:01:23;12.77;;;7.65;;
75216;SDS011;63800;51.972;5.682;2023-04-24T06:03:50;13.55;;;7.35;;
75216;SDS011;63800;51.972;5.682;2023-04-24T06:06:15;12.80;;;7.35;;
75216;SDS011;63800;51.972;5.682;2023-04-24T06:08:41;12.02;;;6.82;;
75216;SDS011;63800;51.972;5.682;2023-04-24T06:11:07;13.88;;;7.80;;
75216;SDS011;63800;51.972;5.682;2023-04-24T06:13:33;11.88;;;7.28;;
75216;SDS011;63800;51.972;5.682;2023-04-24T06:15:58;12.07;;;7.03;;
75216;SDS011;63800;51.972;5.682;2023-04-24T06:18:23;11.98;;;5.93;;
75216;SDS011;63800;51.972;5.682;2023-04-24T06:20:49;9.95;;;6.60;;
75216;SDS011;63800;51.972;5.682;2023-04-24T06:23:14;10.32;;;6.97;;
75216;SDS011;63800;51.972;5.682;2023-04-24T06:25:40;8.70;;;5.63;;
75216;SDS011;63800;51.972;5.682;2023-04-24T06:28:05;8.88;;;6.30;;
75216;SDS011;63800;51.972;5.682;2023-04-24T06:30:31;7.43;;;4.55;;
75216;SDS011;63800;51.972;5.682;2023-04-24T06:32:56;7.18;;;4.70;;
75216;SDS011;63800;51.972;5.682;2023-04-24T06:35:22;6.40;;;4.20;;
75216;SDS011;63800;51.972;5.682;2023-04-24T06:37:48;7.07;;;4.55;;
75216;SDS011;63800;51.972;5.682;2023-04-24T06:40:13;5.78;;;4.15;;
75216;SDS011;63800;51.972;5.682;2023-04-24T06:42:39;6.45;;;3.85;;
75216;SDS011;63800;51.972;5.682;2023-04-24T06:45:05;5.57;;;3.47;;
75216;SDS011;63800;51.972;5.682;2023-04-24T06:47:31;4.88;;;3.42;;
75216;SDS011;63800;51.972;5.682;2023-04-24T06:49:57;4.50;;;3.30;;
75216;SDS011;63800;51.972;5.682;2023-04-24T06:52:23;5.70;;;3.83;;
75216;SDS011;63800;51.972;5.682;2023-04-24T06:54:49;5.00;;;2.78;;
75216;SDS011;63800;51.972;5.682;2023-04-24T06:57:15;3.50;;;2.17;;
75216;SDS011;63800;51.972;5.682;2023-04-24T06:59:41;3.22;;;2.42;;
75216;SDS011;63800;51.972;5.682;2023-04-24T07:02:07;4.45;;;2.90;;
75216;SDS011;63800;51.972;5.682;2023-04-24T07:04:32;4.30;;;2.40;;
75216;SDS011;63800;51.972;5.682;2023-04-24T07:06:58;3.92;;;2.20;;
75216;SDS011;63800;51.972;5.682;2023-04-24T07:09:24;3.72;;;2.22;;
75216;SDS011;63800;51.972;5.682;2023-04-24T07:11:51;3.25;;;1.92;;
75216;SDS011;63800;51.972;5.682;2023-04-24T07:14:17;2.75;;;2.30;;
75216;SDS011;63800;51.972;5.682;2023-04-24T07:16:43;2.97;;;2.05;;
75216;SDS011;63800;51.972;5.682;2023-04-24T07:19:08;3.03;;;2.03;;
75216;SDS011;63800;51.972;5.682;2023-04-24T07:21:34;3.88;;;2.80;;
75216;SDS011;63800;51.972;5.682;2023-04-24T07:24:00;4.25;;;2.88;;
75216;SDS011;63800;51.972;5.682;2023-04-24T07:26:28;5.82;;;3.15;;
75216;SDS011;63800;51.972;5.682;2023-04-24T07:28:54;6.82;;;4.60;;
75216;SDS011;63800;51.972;5.682;2023-04-24T07:31:20;8.82;;;5.07;;
75216;SDS011;63800;51.972;5.682;2023-04-24T07:33:46;9.70;;;5.55;;
75216;SDS011;63800;51.972;5.682;2023-04-24T07:36:11;8.70;;;6.00;;
75216;SDS011;63800;51.972;5.682;2023-04-24T07:38:41;11.35;;;6.95;;
75216;SDS011;63800;51.972;5.682;2023-04-24T07:41:07;10.63;;;6.90;;
75216;SDS011;63800;51.972;5.682;2023-04-24T07:43:32;12.65;;;7.55;;
75216;SDS011;63800;51.972;5.682;2023-04-24T07:45:58;11.82;;;7.45;;
75216;SDS011;63800;51.972;5.682;2023-04-24T07:48:23;14.35;;;8.05;;
75216;SDS011;63800;51.972;5.682;2023-04-24T07:50:51;15.00;;;8.60;;
75216;SDS011;63800;51.972;5.682;2023-04-24T07:53:17;13.02;;;7.97;;
75216;SDS011;63800;51.972;5.682;2023-04-24T07:55:42;13.98;;;8.02;;
75216;SDS011;63800;51.972;5.682;2023-04-24T07:58:08;13.75;;;8.02;;
75216;SDS011;63800;51.972;5.682;2023-04-24T08:00:33;17.08;;;9.15;;
75216;SDS011;63800;51.972;5.682;2023-04-24T08:02:59;15.98;;;8.75;;
75216;SDS011;63800;51.972;5.682;2023-04-24T08:05:25;15.63;;;8.27;;
75216;SDS011;63800;51.972;5.682;2023-04-24T08:07:52;15.70;;;8.82;;
75216;SDS011;63800;51.972;5.682;2023-04-24T08:10:17;16.48;;;8.82;;
75216;SDS011;63800;51.972;5.682;2023-04-24T08:12:43;15.80;;;8.55;;
75216;SDS011;63800;51.972;5.682;2023-04-24T08:15:09;17.52;;;8.50;;
75216;SDS011;63800;51.972;5.682;2023-04-24T08:17:35;17.80;;;8.68;;
75216;SDS011;63800;51.972;5.682;2023-04-24T08:20:01;13.93;;;8.73;;
75216;SDS011;63800;51.972;5.682;2023-04-24T08:22:29;15.93;;;8.73;;
75216;SDS011;63800;51.972;5.682;2023-04-24T08:24:55;17.63;;;8.30;;
75216;SDS011;63800;51.972;5.682;2023-04-24T08:27:22;15.68;;;8.98;;
75216;SDS011;63800;51.972;5.682;2023-04-24T08:29:52;15.25;;;8.60;;
75216;SDS011;63800;51.972;5.682;2023-04-24T08:32:18;14.98;;;8.20;;
75216;SDS011;63800;51.972;5.682;2023-04-24T08:34:44;13.43;;;8.40;;
75216;SDS011;63800;51.972;5.682;2023-04-24T08:37:09;17.88;;;9.02;;
75216;SDS011;63800;51.972;5.682;2023-04-24T08:39:35;15.50;;;8.98;;
75216;SDS011;63800;51.972;5.682;2023-04-24T08:42:00;16.27;;;8.68;;
75216;SDS011;63800;51.972;5.682;2023-04-24T08:44:31;14.88;;;7.95;;
75216;SDS011;63800;51.972;5.682;2023-04-24T08:46:57;14.82;;;7.45;;
75216;SDS011;63800;51.972;5.682;2023-04-24T08:49:23;13.52;;;6.93;;
75216;SDS011;63800;51.972;5.682;2023-04-24T08:51:49;12.32;;;5.82;;
75216;SDS011;63800;51.972;5.682;2023-04-24T08:54:17;10.10;;;5.90;;
75216;SDS011;63800;51.972;5.682;2023-04-24T08:56:43;13.00;;;6.15;;
75216;SDS011;63800;51.972;5.682;2023-04-24T08:59:09;16.13;;;5.82;;
75216;SDS011;63800;51.972;5.682;2023-04-24T09:01:35;16.92;;;6.65;;
75216;SDS011;63800;51.972;5.682;2023-04-24T09:04:04;12.98;;;5.95;;
75216;SDS011;63800;51.972;5.682;2023-04-24T09:06:32;8.77;;;4.97;;
75216;SDS011;63800;51.972;5.682;2023-04-24T09:09:00;13.63;;;4.93;;
75216;SDS011;63800;51.972;5.682;2023-04-24T09:11:26;10.07;;;4.63;;
75216;SDS011;63800;51.972;5.682;2023-04-24T09:13:53;13.48;;;4.70;;
75216;SDS011;63800;51.972;5.682;2023-04-24T09:16:19;13.38;;;4.15;;
75216;SDS011;63800;51.972;5.682;2023-04-24T09:18:45;10.35;;;3.97;;
75216;SDS011;63800;51.972;5.682;2023-04-24T09:21:11;9.02;;;3.33;;
75216;SDS011;63800;51.972;5.682;2023-04-24T09:23:36;8.38;;;3.80;;
75216;SDS011;63800;51.972;5.682;2023-04-24T09:26:03;10.00;;;3.55;;
75216;SDS011;63800;51.972;5.682;2023-04-24T09:28:40;11.52;;;3.70;;
75216;SDS011;63800;51.972;5.682;2023-04-24T09:33:34;9.02;;;3.33;;
75216;SDS011;63800;51.972;5.682;2023-04-24T09:36:01;8.43;;;2.90;;
75216;SDS011;63800;51.972;5.682;2023-04-24T09:38:37;12.63;;;3.40;;
75216;SDS011;63800;51.972;5.682;2023-04-24T09:41:04;9.88;;;3.13;;
75216;SDS011;63800;51.972;5.682;2023-04-24T09:43:32;6.20;;;3.13;;
75216;SDS011;63800;51.972;5.682;2023-04-24T09:45:58;7.35;;;2.92;;
75216;SDS011;63800;51.972;5.682;2023-04-24T09:48:31;10.63;;;2.85;;
75216;SDS011;63800;51.972;5.682;2023-04-24T09:50:57;8.20;;;3.72;;
75216;SDS011;63800;51.972;5.682;2023-04-24T09:53:28;10.30;;;3.65;;
75216;SDS011;63800;51.972;5.682;2023-04-24T09:55:54;9.02;;;2.92;;
75216;SDS011;63800;51.972;5.682;2023-04-24T09:58:25;8.02;;;3.03;;
75216;SDS011;63800;51.972;5.682;2023-04-24T10:00:53;11.90;;;3.28;;
75216;SDS011;63800;51.972;5.682;2023-04-24T10:03:19;7.70;;;3.33;;
75216;SDS011;63800;51.972;5.682;2023-04-24T10:05:45;11.80;;;3.40;;
75216;SDS011;63800;51.972;5.682;2023-04-24T10:08:12;9.32;;;3.63;;
75216;SDS011;63800;51.972;5.682;2023-04-24T10:10:38;11.40;;;3.55;;
75216;SDS011;63800;51.972;5.682;2023-04-24T10:13:11;7.85;;;3.50;;
75216;SDS011;63800;51.972;5.682;2023-04-24T10:15:38;9.07;;;3.38;;
75216;SDS011;63800;51.972;5.682;2023-04-24T10:18:06;9.55;;;3.25;;
75216;SDS011;63800;51.972;5.682;2023-04-24T10:20:33;10.00;;;3.55;;
75216;SDS011;63800;51.972;5.682;2023-04-24T10:23:00;11.85;;;3.65;;
75216;SDS011;63800;51.972;5.682;2023-04-24T10:25:27;8.13;;;3.20;;
75216;SDS011;63800;51.972;5.682;2023-04-24T10:27:54;4.85;;;2.30;;
75216;SDS011;63800;51.972;5.682;2023-04-24T10:30:25;8.02;;;2.22;;
75216;SDS011;63800;51.972;5.682;2023-04-24T10:32:51;6.63;;;2.20;;
75216;SDS011;63800;51.972;5.682;2023-04-24T10:35:17;6.05;;;3.10;;
75216;SDS011;63800;51.972;5.682;2023-04-24T10:38:05;7.00;;;2.40;;
75216;SDS011;63800;51.972;5.682;2023-04-24T10:40:33;5.75;;;2.00;;
75216;SDS011;63800;51.972;5.682;2023-04-24T10:43:04;4.80;;;2.13;;
75216;SDS011;63800;51.972;5.682;2023-04-24T10:45:34;6.85;;;2.35;;
75216;SDS011;63800;51.972;5.682;2023-04-24T10:50:44;6.90;;;2.60;;
75216;SDS011;63800;51.972;5.682;2023-04-24T10:53:21;5.53;;;2.20;;
75216;SDS011;63800;51.972;5.682;2023-04-24T10:55:58;4.20;;;2.25;;
75216;SDS011;63800;51.972;5.682;2023-04-24T10:58:24;6.03;;;2.15;;
75216;SDS011;63800;51.972;5.682;2023-04-24T11:01:02;7.40;;;2.55;;
75216;SDS011;63800;51.972;5.682;2023-04-24T11:03:28;5.32;;;1.58;;
75216;SDS011;63800;51.972;5.682;2023-04-24T11:08:32;2.78;;;1.48;;
75216;SDS011;63800;51.972;5.682;2023-04-24T11:11:03;6.22;;;1.63;;
75216;SDS011;63800;51.972;5.682;2023-04-24T11:18:51;4.07;;;1.38;;
75216;SDS011;63800;51.972;5.682;2023-04-24T11:21:19;2.85;;;1.27;;
75216;SDS011;63800;51.972;5.682;2023-04-24T11:23:47;6.47;;;1.55;;
75216;SDS011;63800;51.972;5.682;2023-04-24T11:26:14;4.38;;;1.10;;
75216;SDS011;63800;51.972;5.682;2023-04-24T11:28:55;2.22;;;0.93;;
75216;SDS011;63800;51.972;5.682;2023-04-24T11:31:38;4.43;;;1.30;;
75216;SDS011;63800;51.972;5.682;2023-04-24T11:34:08;5.05;;;1.85;;
75216;SDS011;63800;51.972;5.682;2023-04-24T11:36:39;4.55;;;1.52;;
75216;SDS011;63800;51.972;5.682;2023-04-24T11:39:05;2.28;;;1.10;;
75216;SDS011;63800;51.972;5.682;2023-04-24T11:41:31;4.18;;;1.25;;
75216;SDS011;63800;51.972;5.682;2023-04-24T11:43:58;2.60;;;1.40;;
75216;SDS011;63800;51.972;5.682;2023-04-24T11:46:26;1.60;;;1.13;;
75216;SDS011;63800;51.972;5.682;2023-04-24T11:48:53;4.80;;;1.27;;
75216;SDS011;63800;51.972;5.682;2023-04-24T11:51:19;2.17;;;1.55;;
75216;SDS011;63800;51.972;5.682;2023-04-24T11:53:44;3.85;;;1.33;;
75216;SDS011;63800;51.972;5.682;2023-04-24T11:56:10;1.63;;;1.10;;
75216;SDS011;63800;51.972;5.682;2023-04-24T11:58:35;2.38;;;1.38;;
75216;SDS011;63800;51.972;5.682;2023-04-24T12:01:02;1.35;;;1.25;;
75216;SDS011;63800;51.972;5.682;2023-04-24T12:03:28;2.55;;;1.48;;
75216;SDS011;63800;51.972;5.682;2023-04-24T12:06:04;4.57;;;1.40;;
75216;SDS011;63800;51.972;5.682;2023-04-24T12:08:31;2.78;;;1.30;;
75216;SDS011;63800;51.972;5.682;2023-04-24T12:10:57;4.00;;;1.60;;
75216;SDS011;63800;51.972;5.682;2023-04-24T12:13:25;3.50;;;1.50;;
75216;SDS011;63800;51.972;5.682;2023-04-24T12:15:50;5.47;;;1.77;;
75216;SDS011;63800;51.972;5.682;2023-04-24T12:18:16;4.50;;;1.63;;
75216;SDS011;63800;51.972;5.682;2023-04-24T12:20:42;4.47;;;2.00;;
75216;SDS011;63800;51.972;5.682;2023-04-24T12:23:07;2.97;;;1.60;;
75216;SDS011;63800;51.972;5.682;2023-04-24T12:25:33;2.83;;;1.20;;
75216;SDS011;63800;51.972;5.682;2023-04-24T12:30:28;3.25;;;1.40;;
75216;SDS011;63800;51.972;5.682;2023-04-24T12:32:54;1.70;;;1.10;;
75216;SDS011;63800;51.972;5.682;2023-04-24T12:35:23;1.45;;;1.08;;
75216;SDS011;63800;51.972;5.682;2023-04-24T12:37:50;3.08;;;1.10;;
75216;SDS011;63800;51.972;5.682;2023-04-24T12:40:17;2.35;;;1.20;;
75216;SDS011;63800;51.972;5.682;2023-04-24T12:42:45;2.60;;;1.13;;
75216;SDS011;63800;51.972;5.682;2023-04-24T12:45:12;5.50;;;2.15;;
75216;SDS011;63800;51.972;5.682;2023-04-24T12:47:38;2.13;;;1.10;;
75216;SDS011;63800;51.972;5.682;2023-04-24T12:50:05;5.45;;;2.17;;
75216;SDS011;63800;51.972;5.682;2023-04-24T12:52:31;4.05;;;1.67;;
75216;SDS011;63800;51.972;5.682;2023-04-24T12:54:58;2.83;;;1.40;;
75216;SDS011;63800;51.972;5.682;2023-04-24T12:57:25;4.53;;;1.58;;
75216;SDS011;63800;51.972;5.682;2023-04-24T12:59:55;3.13;;;1.17;;
75216;SDS011;63800;51.972;5.682;2023-04-24T13:02:22;6.32;;;1.52;;
75216;SDS011;63800;51.972;5.682;2023-04-24T13:04:49;2.10;;;1.20;;
75216;SDS011;63800;51.972;5.682;2023-04-24T13:07:15;4.57;;;1.63;;
75216;SDS011;63800;51.972;5.682;2023-04-24T13:09:41;3.75;;;1.52;;
75216;SDS011;63800;51.972;5.682;2023-04-24T13:12:07;4.07;;;1.40;;
75216;SDS011;63800;51.972;5.682;2023-04-24T13:14:33;7.43;;;2.17;;
75216;SDS011;63800;51.972;5.682;2023-04-24T13:16:59;7.03;;;1.80;;
75216;SDS011;63800;51.972;5.682;2023-04-24T13:19:25;4.65;;;2.20;;
75216;SDS011;63800;51.972;5.682;2023-04-24T13:21:52;5.95;;;1.73;;
75216;SDS011;63800;51.972;5.682;2023-04-24T13:24:20;2.92;;;1.73;;
75216;SDS011;63800;51.972;5.682;2023-04-24T13:26:45;4.00;;;1.83;;
75216;SDS011;63800;51.972;5.682;2023-04-24T13:29:11;5.40;;;2.05;;
75216;SDS011;63800;51.972;5.682;2023-04-24T13:31:36;6.55;;;1.80;;
75216;SDS011;63800;51.972;5.682;2023-04-24T13:34:02;5.47;;;2.10;;
75216;SDS011;63800;51.972;5.682;2023-04-24T13:36:28;6.45;;;1.90;;
75216;SDS011;63800;51.972;5.682;2023-04-24T13:38:55;5.57;;;1.90;;
75216;SDS011;63800;51.972;5.682;2023-04-24T13:41:20;2.53;;;1.75;;
75216;SDS011;63800;51.972;5.682;2023-04-24T13:43:46;5.45;;;1.90;;
75216;SDS011;63800;51.972;5.682;2023-04-24T13:46:11;3.67;;;2.28;;
75216;SDS011;63800;51.972;5.682;2023-04-24T13:48:36;4.00;;;1.75;;
75216;SDS011;63800;51.972;5.682;2023-04-24T13:51:02;4.32;;;1.90;;
75216;SDS011;63800;51.972;5.682;2023-04-24T13:53:28;5.35;;;1.85;;
75216;SDS011;63800;51.972;5.682;2023-04-24T13:55:53;5.15;;;1.60;;
75216;SDS011;63800;51.972;5.682;2023-04-24T13:58:18;6.05;;;2.22;;
75216;SDS011;63800;51.972;5.682;2023-04-24T14:00:44;7.25;;;2.17;;
75216;SDS011;63800;51.972;5.682;2023-04-24T14:03:10;7.13;;;2.15;;
75216;SDS011;63800;51.972;5.682;2023-04-24T14:05:35;8.68;;;2.63;;
75216;SDS011;63800;51.972;5.682;2023-04-24T14:08:01;5.70;;;2.65;;
75216;SDS011;63800;51.972;5.682;2023-04-24T14:10:26;9.35;;;2.40;;
75216;SDS011;63800;51.972;5.682;2023-04-24T14:12:52;8.82;;;2.53;;
75216;SDS011;63800;51.972;5.682;2023-04-24T14:15:18;5.70;;;2.33;;
75216;SDS011;63800;51.972;5.682;2023-04-24T14:17:43;7.47;;;2.03;;
75216;SDS011;63800;51.972;5.682;2023-04-24T14:20:09;7.15;;;3.08;;
75216;SDS011;63800;51.972;5.682;2023-04-24T14:22:35;6.55;;;2.50;;
75216;SDS011;63800;51.972;5.682;2023-04-24T14:25:00;4.57;;;2.00;;
75216;SDS011;63800;51.972;5.682;2023-04-24T14:27:26;4.78;;;1.70;;
75216;SDS011;63800;51.972;5.682;2023-04-24T14:29:51;7.88;;;2.58;;
75216;SDS011;63800;51.972;5.682;2023-04-24T14:32:17;6.20;;;2.22;;
75216;SDS011;63800;51.972;5.682;2023-04-24T14:34:43;4.35;;;2.33;;
75216;SDS011;63800;51.972;5.682;2023-04-24T14:37:08;6.47;;;1.98;;
75216;SDS011;63800;51.972;5.682;2023-04-24T14:39:33;6.93;;;2.75;;
75216;SDS011;63800;51.972;5.682;2023-04-24T14:41:59;5.30;;;2.15;;
75216;SDS011;63800;51.972;5.682;2023-04-24T14:44:26;6.55;;;1.90;;
75216;SDS011;63800;51.972;5.682;2023-04-24T14:46:51;6.28;;;2.15;;
75216;SDS011;63800;51.972;5.682;2023-04-24T14:49:18;7.05;;;2.63;;
75216;SDS011;63800;51.972;5.682;2023-04-24T14:51:43;3.08;;;2.10;;